createdAt,value
2018-09-02T00:01:40.829Z,11.97
2018-09-02T00:03:43.359Z,11.83
2018-09-02T00:05:45.490Z,11.00
2018-09-02T00:07:47.658Z,10.93
2018-09-02T00:09:50.006Z,10.33
2018-09-02T00:11:52.155Z,12.77
2018-09-02T00:13:54.351Z,12.40
2018-09-02T00:15:56.880Z,11.90
2018-09-02T00:17:59.005Z,11.53
2018-09-02T00:20:01.154Z,10.40
2018-09-02T00:22:03.346Z,10.93
2018-09-02T00:24:05.496Z,10.50
2018-09-02T00:26:07.698Z,10.93
2018-09-02T00:28:10.122Z,11.10
2018-09-02T00:30:12.265Z,8.93
2018-09-02T00:32:14.382Z,9.87
2018-09-02T00:34:16.494Z,10.10
2018-09-02T00:36:18.813Z,9.90
2018-09-02T00:38:20.988Z,10.73
2018-09-02T00:40:23.128Z,10.90
2018-09-02T00:42:25.294Z,11.20
2018-09-02T00:44:27.946Z,11.50
2018-09-02T00:46:30.090Z,12.03
2018-09-02T00:48:32.224Z,12.53
2018-09-02T00:50:34.646Z,12.43
2018-09-02T00:52:37.217Z,13.37
2018-09-02T00:54:39.398Z,12.10
2018-09-02T00:56:41.577Z,12.23
2018-09-02T00:58:44.066Z,13.27
2018-09-02T01:00:46.234Z,12.10
2018-09-02T01:02:48.349Z,12.13
2018-09-02T01:04:50.918Z,11.50
2018-09-02T01:06:53.054Z,10.47
2018-09-02T01:08:55.224Z,9.73
2018-09-02T01:10:57.407Z,9.50
2018-09-02T01:12:59.573Z,10.90
2018-09-02T01:15:01.728Z,9.40
2018-09-02T01:17:04.146Z,10.10
2018-09-02T01:19:06.269Z,10.23
2018-09-02T01:21:08.422Z,9.60
2018-09-02T01:23:10.716Z,10.80
2018-09-02T01:25:12.753Z,9.20
2018-09-02T01:27:14.862Z,9.40
2018-09-02T01:29:17.488Z,9.63
2018-09-02T01:31:19.665Z,10.60
2018-09-02T01:33:21.828Z,10.47
2018-09-02T01:35:29.572Z,10.90
2018-09-02T01:37:31.736Z,10.90
2018-09-02T01:39:33.894Z,10.40
2018-09-02T01:41:36.366Z,11.40
2018-09-02T01:43:38.518Z,12.17
2018-09-02T01:45:40.633Z,11.27
2018-09-02T01:47:42.859Z,11.30
2018-09-02T01:49:45.000Z,10.03
2018-09-02T01:51:47.119Z,10.80
2018-09-02T01:53:49.254Z,9.10
2018-09-02T01:55:51.410Z,10.63
2018-09-02T01:57:53.597Z,8.60
2018-09-02T01:59:55.770Z,8.33
2018-09-02T02:01:58.098Z,8.53
2018-09-02T02:04:00.226Z,8.47
2018-09-02T02:06:02.406Z,7.77
2018-09-02T02:08:04.586Z,8.93
2018-09-02T02:10:06.802Z,7.00
2018-09-02T02:12:08.970Z,8.33
2018-09-02T02:14:11.547Z,7.27
2018-09-02T02:16:13.736Z,7.87
2018-09-02T02:18:15.905Z,7.53
2018-09-02T02:20:18.085Z,7.27
2018-09-02T02:22:20.233Z,7.80
2018-09-02T02:24:22.335Z,8.33
2018-09-02T02:26:24.515Z,7.57
2018-09-02T02:28:26.655Z,7.30
2018-09-02T02:30:28.865Z,8.23
2018-09-02T02:32:31.329Z,7.97
2018-09-02T02:34:33.476Z,7.30
2018-09-02T02:36:35.742Z,9.20
2018-09-02T02:38:38.528Z,7.90
2018-09-02T02:40:40.646Z,7.97
2018-09-02T02:42:42.841Z,7.37
2018-09-02T02:44:44.970Z,7.40
2018-09-02T02:46:47.114Z,9.03
2018-09-02T02:48:49.244Z,7.90
2018-09-02T02:50:51.398Z,7.47
2018-09-02T02:52:59.183Z,7.90
2018-09-02T02:55:01.342Z,8.33
2018-09-02T02:57:03.534Z,8.53
2018-09-02T02:59:06.082Z,8.30
2018-09-02T03:01:08.209Z,8.20
2018-09-02T03:03:10.402Z,8.73
2018-09-02T03:05:13.107Z,7.93
2018-09-02T03:07:15.211Z,8.23
2018-09-02T03:09:17.314Z,8.67
2018-09-02T03:11:19.417Z,7.80
2018-09-02T03:13:21.562Z,7.93
2018-09-02T03:15:23.699Z,7.67
2018-09-02T03:17:25.867Z,7.63
2018-09-02T03:19:28.026Z,8.00
2018-09-02T03:21:30.681Z,7.80
2018-09-02T03:23:32.946Z,7.17
2018-09-02T03:25:35.560Z,8.40
2018-09-02T03:27:37.683Z,9.20
2018-09-02T03:29:39.873Z,8.03
2018-09-02T03:31:42.077Z,9.17
2018-09-02T03:33:44.207Z,7.90
2018-09-02T03:35:46.342Z,7.87
2018-09-02T03:37:48.778Z,8.80
2018-09-02T03:39:51.126Z,10.73
2018-09-02T03:41:53.245Z,8.13
2018-09-02T03:43:55.419Z,7.50
2018-09-02T03:45:57.623Z,8.30
2018-09-02T03:47:59.782Z,8.00
2018-09-02T03:50:01.920Z,9.37
2018-09-02T03:52:04.179Z,7.90
2018-09-02T03:54:06.307Z,8.90
2018-09-02T03:56:08.494Z,8.33
2018-09-02T03:58:11.190Z,8.73
2018-09-02T04:00:13.414Z,12.20
2018-09-02T04:02:15.552Z,9.13
2018-09-02T04:04:17.920Z,8.60
2018-09-02T04:06:20.036Z,10.00
2018-09-02T04:08:22.155Z,11.23
2018-09-02T04:10:24.306Z,9.60
2018-09-02T04:12:26.448Z,9.60
2018-09-02T04:14:28.557Z,9.07
2018-09-02T04:16:30.882Z,11.37
2018-09-02T04:18:33.050Z,9.90
2018-09-02T04:20:35.998Z,9.70
2018-09-02T04:22:38.475Z,10.40
2018-09-02T04:24:40.594Z,9.90
2018-09-02T04:26:42.720Z,9.90
2018-09-02T04:28:44.882Z,10.77
2018-09-02T04:30:47.026Z,11.43
2018-09-02T04:32:49.164Z,10.73
2018-09-02T04:34:51.319Z,10.80
2018-09-02T04:36:53.470Z,10.13
2018-09-02T04:38:55.613Z,10.90
2018-09-02T04:40:57.695Z,10.70
2018-09-02T04:42:59.806Z,12.70
2018-09-02T04:45:01.990Z,10.90
2018-09-02T04:47:04.362Z,11.37
2018-09-02T04:49:06.475Z,12.87
2018-09-02T04:51:08.639Z,13.40
2018-09-02T04:53:10.838Z,14.17
2018-09-02T04:55:12.983Z,12.47
2018-09-02T04:57:15.162Z,12.30
2018-09-02T04:59:17.803Z,12.00
2018-09-02T05:01:19.928Z,12.73
2018-09-02T05:03:22.085Z,15.07
2018-09-02T05:05:24.222Z,13.30
2018-09-02T05:07:26.398Z,14.87
2018-09-02T05:09:28.530Z,13.77
2018-09-02T05:11:30.658Z,15.70
2018-09-02T05:13:32.770Z,11.20
2018-09-02T05:15:34.873Z,11.07
2018-09-02T05:17:37.059Z,12.07
2018-09-02T05:19:39.215Z,11.40
2018-09-02T05:21:41.342Z,12.57
2018-09-02T05:23:43.570Z,12.07
2018-09-02T05:25:45.754Z,12.20
2018-09-02T05:27:47.909Z,11.90
2018-09-02T05:29:51.115Z,12.17
2018-09-02T05:31:53.247Z,11.17
2018-09-02T05:33:55.369Z,12.73
2018-09-02T05:35:57.795Z,12.60
2018-09-02T05:38:00.088Z,14.50
2018-09-02T05:40:02.265Z,11.53
2018-09-02T05:42:04.523Z,10.90
2018-09-02T05:44:06.746Z,13.53
2018-09-02T05:46:15.904Z,13.40
2018-09-02T05:48:18.030Z,13.20
2018-09-02T05:50:20.125Z,15.00
2018-09-02T05:52:22.275Z,13.57
2018-09-02T05:54:25.242Z,15.13
2018-09-02T05:56:27.359Z,13.33
2018-09-02T05:58:29.486Z,17.00
2018-09-02T06:00:31.624Z,15.77
2018-09-02T06:02:33.742Z,14.00
2018-09-02T06:04:35.842Z,15.07
2018-09-02T06:06:37.972Z,14.37
2018-09-02T06:08:40.090Z,15.57
2018-09-02T06:10:42.256Z,15.07
2018-09-02T06:12:44.370Z,15.37
2018-09-02T06:14:46.557Z,15.10
2018-09-02T06:16:48.770Z,15.77
2018-09-02T06:18:50.916Z,13.93
2018-09-02T06:20:53.063Z,15.03
2018-09-02T06:22:55.159Z,13.20
2018-09-02T06:24:57.702Z,12.60
2018-09-02T06:26:59.864Z,16.00
2018-09-02T06:29:02.003Z,11.10
2018-09-02T06:31:04.223Z,12.10
2018-09-02T06:33:06.354Z,12.10
2018-09-02T06:35:08.471Z,11.47
2018-09-02T06:37:10.624Z,12.40
2018-09-02T06:39:12.738Z,11.87
2018-09-02T06:41:14.894Z,12.40
2018-09-02T06:43:17.005Z,12.63
2018-09-02T06:45:19.527Z,13.00
2018-09-02T06:47:21.678Z,13.53
2018-09-02T06:49:24.069Z,14.30
2018-09-02T06:51:26.218Z,13.13
2018-09-02T06:53:28.381Z,13.50
2018-09-02T06:55:30.514Z,15.03
2018-09-02T06:57:32.630Z,12.27
2018-09-02T06:59:34.942Z,13.77
2018-09-02T07:01:37.078Z,13.40
2018-09-02T07:03:39.221Z,14.23
2018-09-02T07:05:41.894Z,14.23
2018-09-02T07:07:44.006Z,14.90
2018-09-02T07:09:46.192Z,15.60
2018-09-02T07:11:48.341Z,14.07
2018-09-02T07:13:50.526Z,14.93
2018-09-02T07:15:52.650Z,14.47
2018-09-02T07:17:54.806Z,14.77
2018-09-02T07:19:56.940Z,16.00
2018-09-02T07:21:59.043Z,15.30
2018-09-02T07:24:01.174Z,16.13
2018-09-02T07:26:03.567Z,16.33
2018-09-02T07:28:05.712Z,14.87
2018-09-02T07:30:07.878Z,15.93
2018-09-02T07:32:10.026Z,14.90
2018-09-02T07:34:12.139Z,14.27
2018-09-02T07:36:14.538Z,14.80
2018-09-02T07:38:16.721Z,13.47
2018-09-02T07:40:18.835Z,13.30
2018-09-02T07:42:20.982Z,15.50
2018-09-02T07:44:23.140Z,27.57
2018-09-02T07:46:25.386Z,13.70
2018-09-02T07:48:27.703Z,48.30
2018-09-02T07:50:29.842Z,18.77
2018-09-02T07:52:33.206Z,15.33
2018-09-02T07:54:35.422Z,15.07
2018-09-02T07:56:37.515Z,12.60
2018-09-02T07:58:39.650Z,13.33
2018-09-02T08:00:41.768Z,13.20
2018-09-02T08:02:43.978Z,12.77
2018-09-02T08:04:46.091Z,14.33
2018-09-02T08:06:48.180Z,12.93
2018-09-02T08:08:50.582Z,12.80
2018-09-02T08:10:52.679Z,12.57
2018-09-02T08:12:54.951Z,12.50
2018-09-02T08:14:56.926Z,13.20
2018-09-02T08:16:59.086Z,13.70
2018-09-02T08:19:01.374Z,15.27
2018-09-02T08:21:03.696Z,10.83
2018-09-02T08:23:05.862Z,11.23
2018-09-02T08:25:08.671Z,9.83
2018-09-02T08:27:10.946Z,9.97
2018-09-02T08:29:13.058Z,11.40
2018-09-02T08:31:15.199Z,9.83
2018-09-02T08:33:17.316Z,11.27
2018-09-02T08:35:19.483Z,10.33
2018-09-02T08:37:22.414Z,11.57
2018-09-02T08:39:24.622Z,10.93
2018-09-02T08:41:26.758Z,9.70
2018-09-02T08:43:28.884Z,10.73
2018-09-02T08:45:31.278Z,8.87
2018-09-02T08:47:33.438Z,9.30
2018-09-02T08:49:35.555Z,9.23
2018-09-02T08:51:37.759Z,7.60
2018-09-02T08:53:39.902Z,8.40
2018-09-02T08:55:42.035Z,9.57
2018-09-02T08:57:44.453Z,8.40
2018-09-02T08:59:46.645Z,11.40
2018-09-02T09:01:48.888Z,9.37
2018-09-02T09:03:51.004Z,7.93
2018-09-02T09:05:53.115Z,9.00
2018-09-02T09:07:55.400Z,6.33
2018-09-02T09:09:58.702Z,6.57
2018-09-02T09:12:00.879Z,6.60
2018-09-02T09:14:03.068Z,6.70
2018-09-02T09:16:05.468Z,8.03
2018-09-02T09:18:07.588Z,6.77
2018-09-02T09:20:09.694Z,6.03
2018-09-02T09:22:11.901Z,6.40
2018-09-02T09:24:14.006Z,8.40
2018-09-02T09:26:16.134Z,7.20
2018-09-02T09:28:18.329Z,7.03
2018-09-02T09:30:20.493Z,7.60
2018-09-02T09:32:22.656Z,7.70
2018-09-02T09:34:24.702Z,8.50
2018-09-02T09:36:26.932Z,5.90
2018-09-02T09:38:29.066Z,6.73
2018-09-02T09:40:31.329Z,7.33
2018-09-02T09:42:33.438Z,6.60
2018-09-02T09:44:35.570Z,5.27
2018-09-02T09:46:37.709Z,6.00
2018-09-02T09:48:39.850Z,8.23
2018-09-02T09:50:41.996Z,6.73
2018-09-02T09:52:44.494Z,5.97
2018-09-02T09:54:46.625Z,5.43
2018-09-02T09:56:48.790Z,4.77
2018-09-02T09:58:50.961Z,5.67
2018-09-02T10:00:53.083Z,7.07
2018-09-02T10:03:01.986Z,7.40
2018-09-02T10:05:04.506Z,8.50
2018-09-02T10:07:06.683Z,5.73
2018-09-02T10:09:11.918Z,6.10
2018-09-02T10:11:14.055Z,6.40
2018-09-02T10:13:16.182Z,5.80
2018-09-02T10:15:18.304Z,6.47
2018-09-02T10:17:20.498Z,6.50
2018-09-02T10:19:22.830Z,4.97
2018-09-02T10:21:24.954Z,4.73
2018-09-02T10:23:27.090Z,5.23
2018-09-02T10:25:29.255Z,5.33
2018-09-02T10:27:31.771Z,5.47
2018-09-02T10:29:33.868Z,6.10
2018-09-02T10:31:36.025Z,5.80
2018-09-02T10:33:38.165Z,7.10
2018-09-02T10:35:40.302Z,8.13
2018-09-02T10:37:42.426Z,5.13
2018-09-02T10:39:44.580Z,6.97
2018-09-02T10:41:47.726Z,5.97
2018-09-02T10:43:50.018Z,5.47
2018-09-02T10:45:52.149Z,5.67
2018-09-02T10:47:54.316Z,7.13
2018-09-02T10:49:56.472Z,6.10
2018-09-02T10:51:58.658Z,7.30
2018-09-02T10:54:00.800Z,5.40
2018-09-02T10:56:02.938Z,5.53
2018-09-02T10:58:05.130Z,5.10
2018-09-02T11:00:08.422Z,18.97
2018-09-02T11:02:10.542Z,20.67
2018-09-02T11:04:12.661Z,5.97
2018-09-02T11:06:14.951Z,5.30
2018-09-02T11:08:17.108Z,4.93
2018-09-02T11:10:19.224Z,5.10
2018-09-02T11:12:21.365Z,4.93
2018-09-02T11:14:23.501Z,8.63
2018-09-02T11:16:25.634Z,5.13
2018-09-02T11:18:27.914Z,4.97
2018-09-02T11:20:30.077Z,5.00
2018-09-02T11:22:32.246Z,6.83
2018-09-02T11:24:34.622Z,4.90
2018-09-02T11:26:36.762Z,5.07
2018-09-02T11:28:38.875Z,4.20
2018-09-02T11:30:41.098Z,4.90
2018-09-02T11:32:43.266Z,5.03
2018-09-02T11:34:45.392Z,5.27
2018-09-02T11:36:47.556Z,5.57
2018-09-02T11:38:49.709Z,4.60
2018-09-02T11:40:51.851Z,5.73
2018-09-02T11:42:53.997Z,5.30
2018-09-02T11:44:56.151Z,5.97
2018-09-02T11:46:58.452Z,5.10
2018-09-02T11:49:00.554Z,4.43
2018-09-02T11:51:02.727Z,3.97
2018-09-02T11:53:05.338Z,4.30
2018-09-02T11:55:07.551Z,4.70
2018-09-02T11:57:09.691Z,4.63
2018-09-02T11:59:11.942Z,6.87
2018-09-02T12:01:14.075Z,20.40
2018-09-02T12:03:16.596Z,8.23
2018-09-02T12:05:18.778Z,6.57
2018-09-02T12:07:20.946Z,4.70
2018-09-02T12:09:23.218Z,4.43
2018-09-02T12:11:25.394Z,3.93
2018-09-02T12:13:27.547Z,5.20
2018-09-02T12:15:29.761Z,6.60
2018-09-02T12:17:31.913Z,5.53
2018-09-02T12:19:34.058Z,4.30
2018-09-02T12:21:36.236Z,34.67
2018-09-02T12:23:38.486Z,40.77
2018-09-02T12:25:40.590Z,12.63
2018-09-02T12:27:42.742Z,5.10
2018-09-02T12:29:44.923Z,5.30
2018-09-02T12:31:47.042Z,4.87
2018-09-02T12:33:49.450Z,6.93
2018-09-02T12:35:51.596Z,5.23
2018-09-02T12:37:53.756Z,5.63
2018-09-02T12:39:56.124Z,12.20
2018-09-02T12:41:58.331Z,12.57
2018-09-02T12:44:00.478Z,6.90
2018-09-02T12:46:02.699Z,6.70
2018-09-02T12:48:04.969Z,5.50
2018-09-02T12:50:07.082Z,5.20
2018-09-02T12:52:09.490Z,4.70
2018-09-02T12:54:11.647Z,5.67
2018-09-02T12:56:13.813Z,4.50
2018-09-02T12:58:15.923Z,17.80
2018-09-02T13:00:18.239Z,12.23
2018-09-02T13:02:20.359Z,5.57
2018-09-02T13:04:22.485Z,5.00
2018-09-02T13:06:24.642Z,5.30
2018-09-02T13:08:26.958Z,4.50
2018-09-02T13:10:29.118Z,4.37
2018-09-02T13:12:31.315Z,6.53
2018-09-02T13:14:33.394Z,5.87
2018-09-02T13:16:35.511Z,4.50
2018-09-02T13:18:37.661Z,4.83
2018-09-02T13:20:39.814Z,4.70
2018-09-02T13:22:41.939Z,4.87
2018-09-02T13:24:45.005Z,4.60
2018-09-02T13:26:47.116Z,4.60
2018-09-02T13:28:49.492Z,4.73
2018-09-02T13:30:51.706Z,4.60
2018-09-02T13:32:53.834Z,4.67
2018-09-02T13:34:55.996Z,4.63
2018-09-02T13:36:58.183Z,4.53
2018-09-02T13:39:00.310Z,11.27
2018-09-02T13:41:02.503Z,10.30
2018-09-02T13:43:04.837Z,21.93
2018-09-02T13:45:07.138Z,15.70
2018-09-02T13:47:09.527Z,4.90
2018-09-02T13:49:11.638Z,5.90
2018-09-02T13:51:13.799Z,3.87
2018-09-02T13:53:15.955Z,6.53
2018-09-02T13:55:18.083Z,4.40
2018-09-02T13:57:20.235Z,4.37
2018-09-02T13:59:22.469Z,4.27
2018-09-02T14:01:24.629Z,6.97
2018-09-02T14:03:26.764Z,4.30
2018-09-02T14:05:28.934Z,4.30
2018-09-02T14:07:31.107Z,4.30
2018-09-02T14:09:33.262Z,5.90
2018-09-02T14:11:35.534Z,4.13
2018-09-02T14:13:37.678Z,4.07
2018-09-02T14:15:39.836Z,4.63
2018-09-02T14:17:42.301Z,4.40
2018-09-02T14:19:44.496Z,4.10
2018-09-02T14:21:46.618Z,4.77
2018-09-02T14:23:48.767Z,5.20
2018-09-02T14:25:50.951Z,5.10
2018-09-02T14:27:53.151Z,4.27
2018-09-02T14:29:55.307Z,4.07
2018-09-02T14:31:57.450Z,4.07
2018-09-02T14:33:59.593Z,4.57
2018-09-02T14:36:01.708Z,5.47
2018-09-02T14:38:04.558Z,4.57
2018-09-02T14:40:06.691Z,4.40
2018-09-02T14:42:08.857Z,4.17
2018-09-02T14:44:11.006Z,4.15
2018-09-02T14:46:13.183Z,4.25
2018-09-02T14:48:15.362Z,4.50
2018-09-02T14:50:17.615Z,4.50
2018-09-02T14:52:19.868Z,5.20
2018-09-02T14:54:21.987Z,6.27
2018-09-02T14:56:24.136Z,4.67
2018-09-02T14:58:26.595Z,4.60
2018-09-02T15:00:28.722Z,5.53
2018-09-02T15:02:30.834Z,5.13
2018-09-02T15:04:32.986Z,4.47
2018-09-02T15:06:35.203Z,4.90
2018-09-02T15:08:37.409Z,4.60
2018-09-02T15:10:39.816Z,7.77
2018-09-02T15:12:41.969Z,18.27
2018-09-02T15:14:44.061Z,5.10
2018-09-02T15:16:46.226Z,4.30
2018-09-02T15:18:48.429Z,4.60
2018-09-02T15:20:50.634Z,5.63
2018-09-02T15:22:52.755Z,5.03
2018-09-02T15:24:54.938Z,4.37
2018-09-02T15:26:57.113Z,4.70
2018-09-02T15:28:59.238Z,3.93
2018-09-02T15:31:01.353Z,5.70
2018-09-02T15:33:03.486Z,4.83
2018-09-02T15:35:05.658Z,5.03
2018-09-02T15:37:07.786Z,6.60
2018-09-02T15:39:10.969Z,7.50
2018-09-02T15:41:13.084Z,4.20
2018-09-02T15:43:15.218Z,5.20
2018-09-02T15:45:17.383Z,4.50
2018-09-02T15:47:19.515Z,4.17
2018-09-02T15:49:21.754Z,5.53
2018-09-02T15:51:23.963Z,4.70
2018-09-02T15:53:26.072Z,5.27
2018-09-02T15:55:28.246Z,5.00
2018-09-02T15:57:30.417Z,5.03
2018-09-02T15:59:32.550Z,5.63
2018-09-02T16:01:34.694Z,4.80
2018-09-02T16:03:36.904Z,4.60
2018-09-02T16:05:39.123Z,4.60
2018-09-02T16:07:41.246Z,4.40
2018-09-02T16:09:43.410Z,5.27
2018-09-02T16:11:45.634Z,5.10
2018-09-02T16:13:47.775Z,5.67
2018-09-02T16:15:49.916Z,5.13
2018-09-02T16:17:52.062Z,4.53
2018-09-02T16:19:54.243Z,4.80
2018-09-02T16:21:56.497Z,5.40
2018-09-02T16:23:58.633Z,5.03
2018-09-02T16:26:00.876Z,5.43
2018-09-02T16:28:03.016Z,4.80
2018-09-02T16:30:05.817Z,4.87
2018-09-02T16:32:07.974Z,4.80
2018-09-02T16:34:10.121Z,5.10
2018-09-02T16:36:12.272Z,6.00
2018-09-02T16:38:14.459Z,4.80
2018-09-02T16:40:16.590Z,4.47
2018-09-02T16:42:18.998Z,4.50
2018-09-02T16:44:21.133Z,4.90
2018-09-02T16:46:23.474Z,6.00
2018-09-02T16:48:25.683Z,5.63
2018-09-02T16:50:27.779Z,4.80
2018-09-02T16:52:29.903Z,4.17
2018-09-02T16:54:32.058Z,4.73
2018-09-02T16:56:34.294Z,5.80
2018-09-02T16:58:36.481Z,4.40
2018-09-02T17:00:39.198Z,17.90
2018-09-02T17:02:41.338Z,11.97
2018-09-02T17:04:45.670Z,5.83
2018-09-02T17:06:47.788Z,5.50
2018-09-02T17:08:49.992Z,6.77
2018-09-02T17:10:52.226Z,5.50
2018-09-02T17:12:54.347Z,5.03
2018-09-02T17:14:56.451Z,4.63
2018-09-02T17:16:58.671Z,5.20
2018-09-02T17:19:03.966Z,6.07
2018-09-02T17:21:06.130Z,4.73
2018-09-02T17:23:10.218Z,7.07
2018-09-02T17:25:12.387Z,6.00
2018-09-02T17:27:14.573Z,5.73
2018-09-02T17:29:17.034Z,6.43
2018-09-02T17:31:19.194Z,4.53
2018-09-02T17:33:21.350Z,5.53
2018-09-02T17:35:23.538Z,9.50
2018-09-02T17:37:25.666Z,7.60
2018-09-02T17:39:27.766Z,7.33
2018-09-02T17:41:29.946Z,5.57
2018-09-02T17:43:32.346Z,23.47
2018-09-02T17:45:34.502Z,5.33
2018-09-02T17:47:36.662Z,5.73
2018-09-02T17:49:38.927Z,5.80
2018-09-02T17:51:45.655Z,5.20
2018-09-02T17:53:47.970Z,5.43
2018-09-02T17:55:50.234Z,5.30
2018-09-02T17:57:52.383Z,7.53
2018-09-02T17:59:54.646Z,8.03
2018-09-02T18:01:56.917Z,5.97
2018-09-02T18:04:00.014Z,6.67
2018-09-02T18:06:02.450Z,5.80
2018-09-02T18:08:05.465Z,7.80
2018-09-02T18:10:07.615Z,6.23
2018-09-02T18:12:09.799Z,5.97
2018-09-02T18:14:11.920Z,6.87
2018-09-02T18:16:14.096Z,6.50
2018-09-02T18:18:16.238Z,8.73
2018-09-02T18:20:18.374Z,7.33
2018-09-02T18:22:20.493Z,7.00
2018-09-02T18:24:22.655Z,6.50
2018-09-02T18:26:24.813Z,7.63
2018-09-02T18:28:30.966Z,6.67
2018-09-02T18:30:33.098Z,7.80
2018-09-02T18:32:35.271Z,6.40
2018-09-02T18:34:37.398Z,7.00
2018-09-02T18:36:39.522Z,10.53
2018-09-02T18:38:41.656Z,7.93
2018-09-02T18:40:43.940Z,6.60
2018-09-02T18:42:46.093Z,6.33
2018-09-02T18:44:48.429Z,7.83
2018-09-02T18:46:50.739Z,16.67
2018-09-02T18:48:52.851Z,7.83
2018-09-02T18:50:54.994Z,8.10
2018-09-02T18:52:57.142Z,10.20
2018-09-02T18:54:59.336Z,9.57
2018-09-02T18:57:01.520Z,8.13
2018-09-02T18:59:05.311Z,7.47
2018-09-02T19:01:07.427Z,7.00
2018-09-02T19:03:09.758Z,8.30
2018-09-02T19:05:11.886Z,7.17
2018-09-02T19:07:13.986Z,6.27
2018-09-02T19:09:16.134Z,9.80
2018-09-02T19:11:18.363Z,7.80
2018-09-02T19:13:20.483Z,7.67
2018-09-02T19:15:22.606Z,10.60
2018-09-02T19:17:25.107Z,8.67
2018-09-02T19:19:27.479Z,10.00
2018-09-02T19:21:29.618Z,8.93
2018-09-02T19:23:31.946Z,8.23
2018-09-02T19:25:34.058Z,6.93
2018-09-02T19:27:36.338Z,7.80
2018-09-02T19:29:38.876Z,7.47
2018-09-02T19:31:40.971Z,8.83
2018-09-02T19:33:43.158Z,7.90
2018-09-02T19:35:45.295Z,8.07
2018-09-02T19:37:47.420Z,9.10
2018-09-02T19:39:49.575Z,10.10
2018-09-02T19:41:51.967Z,10.43
2018-09-02T19:43:54.131Z,10.13
2018-09-02T19:45:56.273Z,7.33
2018-09-02T19:47:58.526Z,13.90
2018-09-02T19:50:00.682Z,9.47
2018-09-02T19:52:02.819Z,11.93
2018-09-02T19:54:05.196Z,8.73
2018-09-02T19:56:07.434Z,10.20
2018-09-02T19:58:09.569Z,9.10
2018-09-02T20:00:13.026Z,11.23
2018-09-02T20:02:15.162Z,9.03
2018-09-02T20:04:17.295Z,9.83
2018-09-02T20:06:19.706Z,9.93
2018-09-02T20:08:21.862Z,9.70
2018-09-02T20:10:23.985Z,9.17
2018-09-02T20:12:26.150Z,9.47
2018-09-02T20:14:28.496Z,10.87
2018-09-02T20:16:30.615Z,12.17
2018-09-02T20:18:32.798Z,9.73
2018-09-02T20:20:34.905Z,10.43
2018-09-02T20:22:37.061Z,32.73
2018-09-02T20:24:40.275Z,34.87
2018-09-02T20:26:42.427Z,22.10
2018-09-02T20:28:44.543Z,22.50
2018-09-02T20:30:46.741Z,18.60
2018-09-02T20:32:48.908Z,12.67
2018-09-02T20:34:51.022Z,13.57
2018-09-02T20:36:53.143Z,11.03
2018-09-02T20:38:55.280Z,11.80
2018-09-02T20:40:57.413Z,14.77
2018-09-02T20:42:59.556Z,17.20
2018-09-02T20:45:01.708Z,16.10
2018-09-02T20:47:03.842Z,14.30
2018-09-02T20:49:05.970Z,10.57
2018-09-02T20:51:08.129Z,10.97
2018-09-02T20:53:10.237Z,11.50
2018-09-02T20:55:12.353Z,12.37
2018-09-02T20:57:14.485Z,12.50
2018-09-02T20:59:16.621Z,10.70
2018-09-02T21:01:18.758Z,12.40
2018-09-02T21:03:21.172Z,11.90
2018-09-02T21:05:23.531Z,10.37
2018-09-02T21:07:25.678Z,10.80
2018-09-02T21:09:27.848Z,10.10
2018-09-02T21:11:30.075Z,11.17
2018-09-02T21:13:32.199Z,10.10
2018-09-02T21:15:34.350Z,12.03
2018-09-02T21:17:36.495Z,10.90
2018-09-02T21:19:38.786Z,11.00
2018-09-02T21:21:41.200Z,9.60
2018-09-02T21:23:43.371Z,11.33
2018-09-02T21:25:45.610Z,12.63
2018-09-02T21:27:47.755Z,9.70
2018-09-02T21:29:49.983Z,10.03
2018-09-02T21:31:52.113Z,10.87
2018-09-02T21:33:54.649Z,13.53
2018-09-02T21:35:56.815Z,9.53
2018-09-02T21:37:58.966Z,10.97
2018-09-02T21:40:01.084Z,11.57
2018-09-02T21:42:03.219Z,9.13
2018-09-02T21:44:05.413Z,8.80
2018-09-02T21:46:07.531Z,13.30
2018-09-02T21:48:09.820Z,9.93
2018-09-02T21:50:12.481Z,13.63
2018-09-02T21:52:14.646Z,10.50
2018-09-02T21:54:16.775Z,10.90
2018-09-02T21:56:19.311Z,10.47
2018-09-02T21:58:21.466Z,10.53
2018-09-02T22:00:23.635Z,8.93
2018-09-02T22:02:25.870Z,15.43
2018-09-02T22:04:28.012Z,10.33
2018-09-02T22:06:30.130Z,10.43
2018-09-02T22:08:32.537Z,9.67
2018-09-02T22:10:34.795Z,10.00
2018-09-02T22:12:36.947Z,9.77
2018-09-02T22:14:39.117Z,7.97
2018-09-02T22:16:41.744Z,12.53
2018-09-02T22:18:43.893Z,9.90
2018-09-02T22:20:46.326Z,8.83
2018-09-02T22:22:48.442Z,9.07
2018-09-02T22:24:50.649Z,8.87
2018-09-02T22:26:52.998Z,9.73
2018-09-02T22:28:55.177Z,9.50
2018-09-02T22:30:57.306Z,9.63
2018-09-02T22:32:59.690Z,8.80
2018-09-02T22:35:01.831Z,10.23
2018-09-02T22:37:04.194Z,9.27
2018-09-02T22:39:07.060Z,10.50
2018-09-02T22:41:09.247Z,10.67
2018-09-02T22:43:11.529Z,9.70
2018-09-02T22:45:13.680Z,9.57
2018-09-02T22:47:15.786Z,8.60
2018-09-02T22:49:18.466Z,9.30
2018-09-02T22:51:20.718Z,11.50
2018-09-02T22:53:22.867Z,11.13
2018-09-02T22:55:25.082Z,9.47
2018-09-02T22:57:27.291Z,9.90
2018-09-02T22:59:29.374Z,9.30
2018-09-02T23:01:31.538Z,15.20
2018-09-02T23:03:33.694Z,8.57
2018-09-02T23:05:35.820Z,9.97
2018-09-02T23:07:38.095Z,8.47
2018-09-02T23:09:40.241Z,15.67
2018-09-02T23:11:42.395Z,8.73
2018-09-02T23:13:45.150Z,8.30
2018-09-02T23:15:47.327Z,9.70
2018-09-02T23:17:49.506Z,11.10
2018-09-02T23:19:51.966Z,8.20
2018-09-02T23:21:54.126Z,7.93
2018-09-02T23:23:56.294Z,8.27
2018-09-02T23:25:58.479Z,8.63
2018-09-02T23:28:00.615Z,8.37
2018-09-02T23:30:02.790Z,8.10
2018-09-02T23:32:04.972Z,9.53
2018-09-02T23:34:07.388Z,8.77
2018-09-02T23:36:09.522Z,8.67
2018-09-02T23:38:11.707Z,9.90
2018-09-02T23:40:14.122Z,8.13
2018-09-02T23:42:16.439Z,8.27
2018-09-02T23:44:18.591Z,8.60
2018-09-02T23:46:20.778Z,8.47
2018-09-02T23:48:22.944Z,9.87
2018-09-02T23:50:25.242Z,10.00
2018-09-02T23:52:27.684Z,8.23
2018-09-02T23:54:29.800Z,8.20
2018-09-02T23:56:31.955Z,8.00
2018-09-02T23:58:34.198Z,8.70
